Time;durP1;ratioP1;P1;durP2;ratioP2;P2;SDS_P1;SDS_P2;PMS_P1;PMS_P2;Temp;Humidity;BMP_temperature;BMP_pressure;BME280_temperature;BME280_humidity;BME280_pressure;Samples;Min_cycle;Max_cycle;Signal;HPM_P1;HPM_P2
2021/12/25 00:00:06;;;;;;;0.00;0.00;;;;;;;;;;1738598;28;20210;-69
2021/12/25 00:00:59;;;;;;;0.20;0.20;;;;;;;;;;1739353;28;20218;-69
2021/12/25 00:01:50;;;;;;;0.17;0.17;;;;;;;;;;1741322;28;20690;-69
2021/12/25 00:02:43;;;;;;;0.10;0.10;;;;;;;;;;1740189;28;20297;-69
2021/12/25 00:03:35;;;;;;;0.10;0.10;;;;;;;;;;1738820;28;20549;-69
2021/12/25 00:04:27;;;;;;;0.35;0.35;;;;;;;;;;1740725;28;20709;-69
2021/12/25 00:05:19;;;;;;;0.10;0.10;;;;;;;;;;1741890;28;20436;-69
2021/12/25 00:06:11;;;;;;;0.10;0.10;;;;;;;;;;1740031;28;20270;-69
2021/12/25 00:07:03;;;;;;;0.10;0.10;;;;;;;;;;1740819;28;20508;-69
2021/12/25 00:07:56;;;;;;;0.20;0.20;;;;;;;;;;1740530;28;20203;-69
2021/12/25 00:08:47;;;;;;;0.20;0.20;;;;;;;;;;1738935;28;20218;-69
2021/12/25 00:09:40;;;;;;;0.10;0.10;;;;;;;;;;1740295;28;20230;-69
2021/12/25 00:10:32;;;;;;;0.00;0.00;;;;;;;;;;1740786;28;20210;-69
2021/12/25 00:11:24;;;;;;;0.10;0.10;;;;;;;;;;1739685;28;20290;-69
2021/12/25 00:12:15;;;;;;;0.17;0.17;;;;;;;;;;1741300;28;20206;-69
2021/12/25 00:13:08;;;;;;;0.20;0.20;;;;;;;;;;1740294;28;20199;-69
2021/12/25 00:13:59;;;;;;;0.10;0.10;;;;;;;;;;1741510;28;20217;-68
2021/12/25 00:14:51;;;;;;;0.20;0.20;;;;;;;;;;1740230;28;20637;-69
2021/12/25 00:15:43;;;;;;;0.10;0.10;;;;;;;;;;1739336;28;20315;-68
2021/12/25 00:16:35;;;;;;;0.38;0.38;;;;;;;;;;1740590;28;20211;-69
2021/12/25 00:17:26;;;;;;;0.20;0.20;;;;;;;;;;1739991;28;20263;-68
2021/12/25 00:18:19;;;;;;;0.10;0.10;;;;;;;;;;1739393;28;20203;-69
2021/12/25 00:19:10;;;;;;;0.10;0.10;;;;;;;;;;1741557;28;20226;-68
2021/12/25 00:20:02;;;;;;;0.20;0.20;;;;;;;;;;1740873;28;20299;-69
2021/12/25 00:20:54;;;;;;;0.03;0.03;;;;;;;;;;1740257;28;20226;-68
2021/12/25 00:21:46;;;;;;;0.10;0.10;;;;;;;;;;1740881;28;20553;-68
2021/12/25 00:22:37;;;;;;;0.10;0.10;;;;;;;;;;1740369;28;20368;-69
2021/12/25 00:23:30;;;;;;;0.10;0.10;;;;;;;;;;1741328;28;20199;-69
2021/12/25 00:24:22;;;;;;;0.13;0.13;;;;;;;;;;1740764;28;20590;-68
2021/12/25 00:25:14;;;;;;;0.10;0.10;;;;;;;;;;1741194;28;20627;-69
2021/12/25 00:26:10;;;;;;;0.10;0.10;;;;;;;;;;1739727;28;20226;-69
2021/12/25 00:27:08;;;;;;;0.20;0.20;;;;;;;;;;1740540;28;20625;-70
2021/12/25 00:28:06;;;;;;;0.10;0.10;;;;;;;;;;1740163;28;20207;-69
2021/12/25 00:29:03;;;;;;;0.08;0.08;;;;;;;;;;1737528;28;20225;-69
2021/12/25 00:30:09;;;;;;;0.10;0.10;;;;;;;;;;1740071;28;20646;-69
2021/12/25 00:31:08;;;;;;;0.10;0.10;;;;;;;;;;1739334;28;20755;-68
2021/12/25 00:32:14;;;;;;;0.20;0.20;;;;;;;;;;1738096;28;20196;-68
2021/12/25 00:33:18;;;;;;;0.10;0.10;;;;;;;;;;1735383;28;20638;-68
2021/12/25 00:34:14;;;;;;;0.20;0.20;;;;;;;;;;1739931;28;20199;-69
2021/12/25 00:35:06;;;;;;;0.10;0.10;;;;;;;;;;1739170;28;20348;-68
2021/12/25 00:35:58;;;;;;;0.10;0.10;;;;;;;;;;1739409;28;20579;-69
2021/12/25 00:36:50;;;;;;;0.10;0.10;;;;;;;;;;1741824;28;20210;-69
2021/12/25 00:37:42;;;;;;;0.10;0.10;;;;;;;;;;1740442;28;20272;-69
2021/12/25 00:38:36;;;;;;;0.10;0.10;;;;;;;;;;1740294;28;20213;-69
2021/12/25 00:39:29;;;;;;;0.20;0.20;;;;;;;;;;1740248;28;20269;-69
2021/12/25 00:40:22;;;;;;;0.20;0.20;;;;;;;;;;1740095;28;20637;-70
2021/12/25 00:41:15;;;;;;;0.08;0.08;;;;;;;;;;1739706;28;20218;-70
2021/12/25 00:42:07;;;;;;;0.15;0.15;;;;;;;;;;1740689;28;20264;-69
2021/12/25 00:42:59;;;;;;;0.10;0.10;;;;;;;;;;1738438;28;20290;-69
2021/12/25 00:43:51;;;;;;;0.17;0.17;;;;;;;;;;1741741;28;20544;-69
2021/12/25 00:44:44;;;;;;;0.32;0.32;;;;;;;;;;1734486;28;20231;-69
2021/12/25 00:45:35;;;;;;;0.17;0.17;;;;;;;;;;1738015;28;20528;-70
2021/12/25 00:46:27;;;;;;;0.10;0.10;;;;;;;;;;1739257;28;20503;-69
2021/12/25 00:47:18;;;;;;;0.10;0.10;;;;;;;;;;1741003;28;20295;-69
2021/12/25 00:48:10;;;;;;;0.15;0.15;;;;;;;;;;1740110;28;20210;-69
2021/12/25 00:49:02;;;;;;;0.28;0.28;;;;;;;;;;1739602;28;20213;-69
2021/12/25 00:49:54;;;;;;;0.10;0.10;;;;;;;;;;1739430;28;20526;-69
2021/12/25 00:50:45;;;;;;;0.20;0.20;;;;;;;;;;1738287;28;20226;-69
2021/12/25 00:51:37;;;;;;;0.10;0.10;;;;;;;;;;1740571;28;20230;-69
2021/12/25 00:52:28;;;;;;;0.10;0.10;;;;;;;;;;1739265;28;20203;-69
2021/12/25 00:53:20;;;;;;;0.00;0.00;;;;;;;;;;1740807;28;20226;-69
2021/12/25 00:54:15;;;;;;;0.10;0.10;;;;;;;;;;1737430;28;20533;-69
2021/12/25 00:55:12;;;;;;;0.20;0.20;;;;;;;;;;1738346;28;20738;-69
2021/12/25 00:56:03;;;;;;;0.30;0.30;;;;;;;;;;1736864;28;20257;-69
2021/12/25 00:56:55;;;;;;;0.10;0.10;;;;;;;;;;1738566;28;20707;-69
2021/12/25 00:57:47;;;;;;;0.03;0.03;;;;;;;;;;1735026;28;20207;-69
2021/12/25 00:58:39;;;;;;;0.10;0.10;;;;;;;;;;1739403;28;20210;-69
2021/12/25 00:59:31;;;;;;;0.20;0.20;;;;;;;;;;1738598;28;20209;-69
2021/12/25 01:00:22;;;;;;;0.10;0.10;;;;;;;;;;1740945;28;20210;-68
2021/12/25 01:01:14;;;;;;;0.30;0.30;;;;;;;;;;1739609;28;20563;-69
2021/12/25 01:02:05;;;;;;;0.13;0.13;;;;;;;;;;1740495;28;20203;-68
2021/12/25 01:02:58;;;;;;;0.20;0.20;;;;;;;;;;1740089;28;20326;-68
2021/12/25 01:03:49;;;;;;;0.15;0.15;;;;;;;;;;1737854;28;20647;-68
2021/12/25 01:04:41;;;;;;;0.05;0.05;;;;;;;;;;1736114;28;20210;-68
2021/12/25 01:05:32;;;;;;;0.20;0.20;;;;;;;;;;1737502;28;20220;-69
2021/12/25 01:06:24;;;;;;;0.10;0.10;;;;;;;;;;1739018;28;20718;-68
2021/12/25 01:07:16;;;;;;;0.17;0.17;;;;;;;;;;1740339;28;20213;-68
2021/12/25 01:08:10;;;;;;;0.10;0.10;;;;;;;;;;1739773;28;20214;-69
2021/12/25 01:09:01;;;;;;;0.20;0.20;;;;;;;;;;1740162;28;20203;-68
2021/12/25 01:09:55;;;;;;;0.20;0.20;;;;;;;;;;1739020;28;20202;-69
2021/12/25 01:10:46;;;;;;;0.15;0.15;;;;;;;;;;1739690;28;20230;-68
2021/12/25 01:11:38;;;;;;;0.10;0.10;;;;;;;;;;1740067;28;20196;-69
2021/12/25 01:12:37;;;;;;;0.10;0.10;;;;;;;;;;1739548;28;20245;-69
2021/12/25 01:13:33;;;;;;;0.10;0.10;;;;;;;;;;1740342;28;20275;-68
2021/12/25 01:14:33;;;;;;;0.20;0.20;;;;;;;;;;1737676;28;20195;-68
2021/12/25 01:15:33;;;;;;;0.10;0.10;;;;;;;;;;1739612;28;20625;-70
2021/12/25 01:16:51;;;;;;;0.15;0.15;;;;;;;;;;1739601;28;20698;-69
2021/12/25 01:18:01;;;;;;;0.20;0.20;;;;;;;;;;1739671;28;20217;-69
2021/12/25 01:22:48;;;;;;;0.13;0.13;;;;;;;;;;1721010;28;20207;-68
2021/12/25 01:24:12;;;;;;;0.30;0.30;;;;;;;;;;1736993;28;20306;-69
2021/12/25 01:26:58;;;;;;;0.22;0.22;;;;;;;;;;1708751;28;20235;-68
2021/12/25 01:30:17;;;;;;;0.20;0.20;;;;;;;;;;1700617;28;20320;-68
2021/12/25 01:31:15;;;;;;;0.10;0.10;;;;;;;;;;1711095;28;20259;-68
2021/12/25 01:33:48;;;;;;;0.20;0.20;;;;;;;;;;1712858;28;20241;-68
2021/12/25 01:37:09;;;;;;;0.10;0.10;;;;;;;;;;1739014;28;20206;-69
2021/12/25 01:38:08;;;;;;;0.20;0.20;;;;;;;;;;1739551;28;20198;-68
2021/12/25 01:39:08;;;;;;;0.10;0.10;;;;;;;;;;1737418;28;20636;-68
2021/12/25 01:40:16;;;;;;;0.20;0.20;;;;;;;;;;1738291;28;20270;-68
2021/12/25 01:41:18;;;;;;;0.20;0.20;;;;;;;;;;1736963;28;20679;-69
2021/12/25 01:47:56;;;;;;;0.15;0.15;;;;;;;;;;1738549;28;20287;-69
2021/12/25 01:48:47;;;;;;;0.13;0.13;;;;;;;;;;1739632;28;20660;-69
2021/12/25 01:49:38;;;;;;;0.10;0.10;;;;;;;;;;1739320;28;20305;-69
2021/12/25 01:50:33;;;;;;;0.20;0.20;;;;;;;;;;1739867;28;20201;-70
2021/12/25 01:51:24;;;;;;;0.28;0.28;;;;;;;;;;1733340;28;20268;-69
2021/12/25 01:52:16;;;;;;;0.10;0.10;;;;;;;;;;1740936;28;20201;-69
2021/12/25 01:53:07;;;;;;;0.20;0.20;;;;;;;;;;1739371;28;20202;-69
2021/12/25 01:54:00;;;;;;;0.13;0.13;;;;;;;;;;1740106;28;20229;-69
2021/12/25 01:54:51;;;;;;;0.00;0.00;;;;;;;;;;1739375;28;20214;-69
2021/12/25 01:55:43;;;;;;;0.20;0.20;;;;;;;;;;1737857;28;20230;-68
2021/12/25 01:56:36;;;;;;;0.20;0.20;;;;;;;;;;1735794;28;20227;-69
2021/12/25 01:57:29;;;;;;;0.10;0.10;;;;;;;;;;1739798;28;20207;-69
2021/12/25 01:58:20;;;;;;;0.20;0.20;;;;;;;;;;1738310;28;20199;-69
2021/12/25 01:59:12;;;;;;;0.30;0.30;;;;;;;;;;1739326;28;20205;-68
2021/12/25 02:00:07;;;;;;;0.10;0.10;;;;;;;;;;1739912;28;20214;-68
2021/12/25 02:01:00;;;;;;;0.10;0.10;;;;;;;;;;1738182;28;20262;-69
2021/12/25 02:01:52;;;;;;;0.20;0.20;;;;;;;;;;1739589;28;20213;-69
2021/12/25 02:02:45;;;;;;;0.10;0.10;;;;;;;;;;1738522;28;20380;-69
2021/12/25 02:03:36;;;;;;;0.20;0.20;;;;;;;;;;1739027;28;20521;-69
2021/12/25 02:04:28;;;;;;;0.40;0.40;;;;;;;;;;1739392;28;20302;-69
2021/12/25 02:05:20;;;;;;;0.10;0.10;;;;;;;;;;1740310;28;20201;-69
2021/12/25 02:06:12;;;;;;;0.43;0.43;;;;;;;;;;1738929;28;20234;-68
2021/12/25 02:07:05;;;;;;;0.38;0.38;;;;;;;;;;1739990;28;20682;-68
2021/12/25 02:07:56;;;;;;;0.38;0.38;;;;;;;;;;1739209;28;20240;-69
2021/12/25 02:08:48;;;;;;;0.10;0.10;;;;;;;;;;1739851;28;20352;-68
2021/12/25 02:09:39;;;;;;;0.10;0.10;;;;;;;;;;1738768;28;20220;-68
2021/12/25 02:10:32;;;;;;;0.20;0.20;;;;;;;;;;1740372;28;20308;-68
2021/12/25 02:11:24;;;;;;;0.10;0.10;;;;;;;;;;1734132;28;20617;-68
2021/12/25 02:12:18;;;;;;;0.30;0.30;;;;;;;;;;1739943;28;20319;-68
2021/12/25 02:13:11;;;;;;;0.10;0.10;;;;;;;;;;1739493;28;20210;-68
2021/12/25 02:14:04;;;;;;;0.10;0.10;;;;;;;;;;1739395;28;20562;-68
2021/12/25 02:15:00;;;;;;;0.10;0.10;;;;;;;;;;1739858;28;20264;-68
2021/12/25 02:15:55;;;;;;;0.15;0.15;;;;;;;;;;1739038;28;20294;-68
2021/12/25 02:16:54;;;;;;;0.10;0.10;;;;;;;;;;1739932;28;20214;-68
2021/12/25 02:18:05;;;;;;;0.20;0.20;;;;;;;;;;1737357;28;20199;-68
2021/12/25 02:19:02;;;;;;;0.10;0.10;;;;;;;;;;1738122;28;20687;-69
2021/12/25 02:21:19;;;;;;;0.10;0.10;;;;;;;;;;1744531;27;21166;-63
2021/12/25 02:22:11;;;;;;;0.20;0.20;;;;;;;;;;1743463;28;20197;-63
2021/12/25 02:23:05;;;;;;;0.13;0.13;;;;;;;;;;1738655;28;20335;-62
2021/12/25 02:23:57;;;;;;;0.10;0.10;;;;;;;;;;1742940;28;20574;-63
2021/12/25 02:24:49;;;;;;;0.10;0.10;;;;;;;;;;1744068;28;20213;-62
2021/12/25 02:25:40;;;;;;;0.20;0.20;;;;;;;;;;1742991;28;20619;-62
2021/12/25 02:26:33;;;;;;;0.10;0.10;;;;;;;;;;1743971;28;20667;-62
2021/12/25 02:27:24;;;;;;;0.10;0.10;;;;;;;;;;1743121;28;20300;-62
2021/12/25 02:28:17;;;;;;;0.10;0.10;;;;;;;;;;1743659;28;20236;-62
2021/12/25 02:29:08;;;;;;;0.10;0.10;;;;;;;;;;1743229;28;20278;-62
2021/12/25 02:30:00;;;;;;;0.28;0.28;;;;;;;;;;1744232;28;20208;-62
2021/12/25 02:30:53;;;;;;;0.10;0.10;;;;;;;;;;1738482;28;20237;-63
2021/12/25 02:31:45;;;;;;;0.10;0.10;;;;;;;;;;1736687;28;20295;-62
2021/12/25 02:32:36;;;;;;;0.17;0.17;;;;;;;;;;1737112;28;20217;-62
2021/12/25 02:33:29;;;;;;;0.13;0.13;;;;;;;;;;1736396;28;20900;-62
2021/12/25 02:34:20;;;;;;;0.13;0.13;;;;;;;;;;1736928;28;20205;-62
2021/12/25 02:35:13;;;;;;;0.10;0.10;;;;;;;;;;1736593;28;20203;-62
2021/12/25 02:36:04;;;;;;;0.20;0.20;;;;;;;;;;1734180;28;20225;-62
2021/12/25 02:36:58;;;;;;;0.10;0.10;;;;;;;;;;1736495;28;20215;-62
2021/12/25 02:37:49;;;;;;;0.08;0.08;;;;;;;;;;1737144;28;20235;-61
2021/12/25 02:38:41;;;;;;;0.20;0.20;;;;;;;;;;1736335;28;20214;-61
2021/12/25 02:39:33;;;;;;;0.15;0.15;;;;;;;;;;1736376;28;20713;-64
2021/12/25 02:40:26;;;;;;;0.20;0.20;;;;;;;;;;1735588;28;20309;-62
2021/12/25 02:41:17;;;;;;;0.20;0.20;;;;;;;;;;1736190;28;20225;-63
2021/12/25 02:42:09;;;;;;;0.20;0.20;;;;;;;;;;1736619;28;20617;-61
2021/12/25 02:43:01;;;;;;;0.13;0.13;;;;;;;;;;1737222;28;20718;-63
2021/12/25 02:43:53;;;;;;;0.20;0.20;;;;;;;;;;1736764;28;20219;-65
2021/12/25 02:44:45;;;;;;;0.20;0.20;;;;;;;;;;1737287;28;20209;-62
2021/12/25 02:45:37;;;;;;;0.10;0.10;;;;;;;;;;1734636;28;20265;-63
2021/12/25 02:46:28;;;;;;;0.10;0.10;;;;;;;;;;1737076;28;20213;-62
2021/12/25 02:47:21;;;;;;;0.10;0.10;;;;;;;;;;1736543;28;20204;-63
2021/12/25 02:48:15;;;;;;;0.40;0.40;;;;;;;;;;1736868;28;20213;-64
2021/12/25 02:49:11;;;;;;;0.10;0.10;;;;;;;;;;1736354;28;20208;-62
2021/12/25 02:50:03;;;;;;;0.30;0.30;;;;;;;;;;1736601;28;20201;-62
2021/12/25 02:50:55;;;;;;;0.20;0.20;;;;;;;;;;1739422;28;20220;-63
2021/12/25 02:51:47;;;;;;;0.25;0.25;;;;;;;;;;1739614;28;20987;-61
2021/12/25 02:52:40;;;;;;;0.20;0.20;;;;;;;;;;1740772;28;20215;-61
2021/12/25 02:53:32;;;;;;;0.10;0.10;;;;;;;;;;1740318;28;20217;-61
2021/12/25 02:54:24;;;;;;;0.10;0.10;;;;;;;;;;1741708;28;20748;-62
2021/12/25 02:55:16;;;;;;;0.10;0.10;;;;;;;;;;1741684;28;20814;-63
2021/12/25 02:56:08;;;;;;;0.17;0.17;;;;;;;;;;1743214;28;20614;-63
2021/12/25 02:56:59;;;;;;;0.10;0.10;;;;;;;;;;1741303;28;20228;-60
2021/12/25 02:57:52;;;;;;;0.13;0.13;;;;;;;;;;1744272;28;20220;-62
2021/12/25 02:58:43;;;;;;;0.20;0.20;;;;;;;;;;1740415;28;20777;-61
2021/12/25 02:59:35;;;;;;;0.10;0.10;;;;;;;;;;1744682;28;20907;-61
2021/12/25 03:00:28;;;;;;;0.20;0.20;;;;;;;;;;1739101;28;20205;-62
2021/12/25 03:01:21;;;;;;;0.30;0.30;;;;;;;;;;1742927;28;20693;-61
2021/12/25 03:02:13;;;;;;;0.10;0.10;;;;;;;;;;1741683;28;20205;-61
2021/12/25 03:03:07;;;;;;;0.28;0.28;;;;;;;;;;1742852;28;20201;-62
2021/12/25 03:03:58;;;;;;;0.15;0.15;;;;;;;;;;1742479;28;20299;-62
2021/12/25 03:04:51;;;;;;;0.15;0.15;;;;;;;;;;1743374;28;20225;-62
2021/12/25 03:05:42;;;;;;;0.20;0.20;;;;;;;;;;1741723;28;20204;-61
2021/12/25 03:06:36;;;;;;;0.20;0.20;;;;;;;;;;1741606;28;20232;-61
2021/12/25 03:07:28;;;;;;;0.10;0.10;;;;;;;;;;1739536;28;20203;-63
2021/12/25 03:08:21;;;;;;;0.17;0.17;;;;;;;;;;1740072;28;20208;-62
2021/12/25 03:09:12;;;;;;;0.13;0.13;;;;;;;;;;1742387;28;20957;-62
2021/12/25 03:10:06;;;;;;;0.10;0.10;;;;;;;;;;1741914;28;20563;-63
2021/12/25 03:10:57;;;;;;;0.20;0.20;;;;;;;;;;1742387;28;20289;-61
2021/12/25 03:11:51;;;;;;;0.30;0.30;;;;;;;;;;1741900;28;20209;-63
2021/12/25 03:12:49;;;;;;;0.20;0.20;;;;;;;;;;1741258;28;20700;-62
2021/12/25 03:13:45;;;;;;;0.15;0.15;;;;;;;;;;1740923;28;20203;-62
2021/12/25 03:14:39;;;;;;;0.20;0.20;;;;;;;;;;1743595;28;20580;-61
2021/12/25 03:15:41;;;;;;;0.17;0.17;;;;;;;;;;1740135;28;20201;-62
2021/12/25 03:16:33;;;;;;;0.10;0.10;;;;;;;;;;1743580;28;20190;-62
2021/12/25 03:17:26;;;;;;;0.10;0.10;;;;;;;;;;1739511;28;20206;-62
2021/12/25 03:18:18;;;;;;;0.20;0.20;;;;;;;;;;1740725;28;21099;-63
2021/12/25 03:19:19;;;;;;;0.10;0.10;;;;;;;;;;1740639;28;20638;-61
2021/12/25 03:20:11;;;;;;;0.20;0.20;;;;;;;;;;1741738;28;20192;-61
2021/12/25 03:21:04;;;;;;;0.10;0.10;;;;;;;;;;1748476;28;20613;-62
2021/12/25 03:21:57;;;;;;;0.20;0.20;;;;;;;;;;1745654;28;20213;-61
2021/12/25 03:22:50;;;;;;;0.30;0.30;;;;;;;;;;1750796;28;20715;-62
2021/12/25 03:23:42;;;;;;;0.10;0.10;;;;;;;;;;1747523;28;20211;-63
2021/12/25 03:24:35;;;;;;;0.17;0.17;;;;;;;;;;1748150;28;20203;-62
2021/12/25 03:25:26;;;;;;;0.20;0.20;;;;;;;;;;1746566;28;20257;-60
2021/12/25 03:26:19;;;;;;;0.20;0.20;;;;;;;;;;1751001;28;20201;-64
2021/12/25 03:27:10;;;;;;;0.17;0.17;;;;;;;;;;1748865;28;20261;-62
2021/12/25 03:28:02;;;;;;;0.10;0.10;;;;;;;;;;1749103;28;20230;-64
2021/12/25 03:28:54;;;;;;;0.20;0.20;;;;;;;;;;1748966;28;20924;-62
2021/12/25 03:29:46;;;;;;;0.10;0.10;;;;;;;;;;1749204;28;20201;-61
2021/12/25 03:30:39;;;;;;;0.20;0.20;;;;;;;;;;1745523;28;20204;-63
2021/12/25 03:31:31;;;;;;;0.20;0.20;;;;;;;;;;1749813;28;20678;-62
2021/12/25 03:32:23;;;;;;;0.20;0.20;;;;;;;;;;1744499;28;20417;-61
2021/12/25 03:33:16;;;;;;;0.10;0.10;;;;;;;;;;1743855;28;20198;-61
2021/12/25 03:34:07;;;;;;;0.30;0.30;;;;;;;;;;1743352;28;20200;-62
2021/12/25 03:34:59;;;;;;;0.30;0.30;;;;;;;;;;1744135;28;20723;-62
2021/12/25 03:35:51;;;;;;;0.20;0.20;;;;;;;;;;1744363;28;20705;-62
2021/12/25 03:36:43;;;;;;;0.20;0.20;;;;;;;;;;1744115;28;20201;-64
2021/12/25 03:37:34;;;;;;;0.10;0.10;;;;;;;;;;1741904;28;20215;-62
2021/12/25 03:38:28;;;;;;;0.10;0.10;;;;;;;;;;1742576;28;20204;-62
2021/12/25 03:39:21;;;;;;;0.10;0.10;;;;;;;;;;1745700;28;20565;-62
2021/12/25 03:40:13;;;;;;;0.20;0.20;;;;;;;;;;1742660;28;20208;-62
2021/12/25 03:41:06;;;;;;;0.17;0.17;;;;;;;;;;1742941;28;20255;-63
2021/12/25 03:41:58;;;;;;;0.17;0.17;;;;;;;;;;1741685;28;20299;-62
2021/12/25 03:42:50;;;;;;;0.15;0.15;;;;;;;;;;1744595;28;20204;-62
2021/12/25 03:43:43;;;;;;;0.20;0.20;;;;;;;;;;1743493;28;20219;-61
2021/12/25 03:44:35;;;;;;;0.30;0.30;;;;;;;;;;1740703;28;20203;-62
2021/12/25 03:45:30;;;;;;;0.10;0.10;;;;;;;;;;1739836;28;20202;-61
2021/12/25 03:46:21;;;;;;;0.00;0.00;;;;;;;;;;1745152;28;20208;-60
2021/12/25 03:47:24;;;;;;;0.25;0.25;;;;;;;;;;1745690;28;20253;-60
2021/12/25 03:48:29;;;;;;;0.20;0.20;;;;;;;;;;1743584;28;20480;-61
2021/12/25 03:49:28;;;;;;;0.10;0.10;;;;;;;;;;1745396;28;20190;-60
2021/12/25 03:57:40;;;;;;;0.10;0.10;;;;;;;;;;1742080;28;20187;-63
2021/12/25 03:58:32;;;;;;;0.10;0.10;;;;;;;;;;1742972;28;20194;-62
2021/12/25 03:59:24;;;;;;;0.20;0.20;;;;;;;;;;1747144;28;20946;-62
2021/12/25 04:00:16;;;;;;;0.10;0.10;;;;;;;;;;1743242;28;20205;-62
2021/12/25 04:01:25;;;;;;;0.17;0.17;;;;;;;;;;1745189;28;20226;-63
2021/12/25 04:02:23;;;;;;;0.10;0.10;;;;;;;;;;1742171;28;20917;-61
2021/12/25 04:03:23;;;;;;;0.20;0.20;;;;;;;;;;1743866;28;20194;-61
2021/12/25 04:04:19;;;;;;;0.25;0.25;;;;;;;;;;1743993;28;20285;-64
2021/12/25 04:05:17;;;;;;;0.20;0.20;;;;;;;;;;1741326;28;20190;-61
2021/12/25 04:06:10;;;;;;;0.20;0.20;;;;;;;;;;1743179;28;20705;-61
2021/12/25 04:07:07;;;;;;;0.05;0.05;;;;;;;;;;1743879;28;20666;-60
2021/12/25 04:08:05;;;;;;;0.20;0.20;;;;;;;;;;1745045;28;20298;-63
2021/12/25 04:08:58;;;;;;;0.20;0.20;;;;;;;;;;1743481;28;20252;-62
2021/12/25 04:09:49;;;;;;;0.30;0.30;;;;;;;;;;1745331;28;20216;-61
2021/12/25 04:10:45;;;;;;;0.10;0.10;;;;;;;;;;1740324;28;20624;-60
2021/12/25 04:11:40;;;;;;;0.45;0.45;;;;;;;;;;1744098;28;20204;-62
2021/12/25 04:12:32;;;;;;;0.20;0.20;;;;;;;;;;1746089;28;20191;-60
2021/12/25 04:13:23;;;;;;;0.35;0.35;;;;;;;;;;1743911;28;20608;-61
2021/12/25 04:14:15;;;;;;;0.20;0.20;;;;;;;;;;1745867;28;20322;-61
2021/12/25 04:15:07;;;;;;;0.20;0.20;;;;;;;;;;1744228;28;20257;-61
2021/12/25 04:15:59;;;;;;;0.00;0.00;;;;;;;;;;1743887;28;20442;-64
2021/12/25 04:16:50;;;;;;;0.25;0.25;;;;;;;;;;1744239;28;20631;-61
2021/12/25 04:17:42;;;;;;;0.40;0.40;;;;;;;;;;1745388;28;20229;-61
2021/12/25 04:18:34;;;;;;;0.20;0.20;;;;;;;;;;1743165;28;20204;-60
2021/12/25 04:19:25;;;;;;;0.20;0.20;;;;;;;;;;1743355;28;20529;-61
2021/12/25 04:20:18;;;;;;;0.20;0.20;;;;;;;;;;1741750;28;20200;-63
2021/12/25 04:21:09;;;;;;;0.20;0.20;;;;;;;;;;1742942;28;20235;-61
2021/12/25 04:22:05;;;;;;;0.30;0.30;;;;;;;;;;1743653;28;20224;-63
2021/12/25 04:23:00;;;;;;;0.20;0.20;;;;;;;;;;1745384;28;20612;-63
2021/12/25 04:23:52;;;;;;;0.25;0.25;;;;;;;;;;1744535;28;20197;-62
2021/12/25 04:24:46;;;;;;;0.25;0.25;;;;;;;;;;1744564;28;20669;-61
2021/12/25 04:25:38;;;;;;;0.20;0.20;;;;;;;;;;1740527;28;20633;-61
2021/12/25 04:26:31;;;;;;;0.10;0.10;;;;;;;;;;1745022;28;20211;-60
2021/12/25 04:27:23;;;;;;;0.10;0.10;;;;;;;;;;1742127;28;20205;-60
2021/12/25 04:28:20;;;;;;;0.20;0.20;;;;;;;;;;1743440;28;20248;-61
2021/12/25 04:30:28;;;;;;;0.10;0.10;;;;;;;;;;1740979;28;20264;-61
2021/12/25 04:31:32;;;;;;;0.10;0.10;;;;;;;;;;1744471;28;20314;-61
2021/12/25 04:48:16;;;;;;;0.10;0.10;;;;;;;;;;1742976;28;20274;-61
2021/12/25 05:01:40;;;;;;;0.30;0.30;;;;;;;;;;1740626;28;20205;-60
2021/12/25 05:02:13;;;;;;;0.10;0.10;;;;;;;;;;1741972;28;20253;-61
2021/12/25 05:03:12;;;;;;;0.10;0.10;;;;;;;;;;1739705;28;20191;-60
2021/12/25 05:04:08;;;;;;;0.10;0.10;;;;;;;;;;1743866;28;20217;-62
2021/12/25 05:05:02;;;;;;;0.13;0.13;;;;;;;;;;1741081;28;20648;-60
2021/12/25 05:05:55;;;;;;;0.28;0.28;;;;;;;;;;1744195;28;20642;-60
2021/12/25 05:06:48;;;;;;;0.10;0.10;;;;;;;;;;1743900;28;20672;-60
2021/12/25 05:07:40;;;;;;;0.20;0.20;;;;;;;;;;1745113;28;20206;-61
2021/12/25 05:08:31;;;;;;;0.38;0.38;;;;;;;;;;1741405;28;20204;-61
2021/12/25 05:09:24;;;;;;;0.10;0.10;;;;;;;;;;1745215;28;20225;-60
2021/12/25 05:10:15;;;;;;;0.30;0.30;;;;;;;;;;1742137;28;20199;-61
2021/12/25 05:11:07;;;;;;;0.15;0.15;;;;;;;;;;1744180;28;20279;-61
2021/12/25 05:11:58;;;;;;;0.22;0.22;;;;;;;;;;1742842;28;20195;-61
2021/12/25 05:12:52;;;;;;;0.10;0.10;;;;;;;;;;1745609;28;20229;-61
2021/12/25 05:13:45;;;;;;;0.20;0.20;;;;;;;;;;1742329;28;20212;-61
2021/12/25 05:14:38;;;;;;;0.10;0.10;;;;;;;;;;1745375;28;20233;-60
2021/12/25 05:15:30;;;;;;;0.30;0.30;;;;;;;;;;1739667;28;20198;-61
2021/12/25 05:16:22;;;;;;;0.20;0.20;;;;;;;;;;1744413;28;20542;-61
2021/12/25 05:17:13;;;;;;;0.10;0.10;;;;;;;;;;1741471;28;20218;-62
2021/12/25 05:18:06;;;;;;;0.10;0.10;;;;;;;;;;1743616;28;20213;-61
2021/12/25 05:18:57;;;;;;;0.10;0.10;;;;;;;;;;1741966;28;20213;-61
2021/12/25 05:19:49;;;;;;;0.22;0.22;;;;;;;;;;1745116;28;20591;-60
2021/12/25 05:20:41;;;;;;;0.20;0.20;;;;;;;;;;1739229;28;20238;-62
2021/12/25 05:21:33;;;;;;;0.20;0.20;;;;;;;;;;1744748;28;20179;-61
2021/12/25 05:22:24;;;;;;;0.20;0.20;;;;;;;;;;1743182;28;20198;-61
2021/12/25 05:23:15;;;;;;;0.10;0.10;;;;;;;;;;1742892;28;20257;-60
2021/12/25 05:24:08;;;;;;;0.17;0.17;;;;;;;;;;1742104;28;20199;-61
2021/12/25 05:24:59;;;;;;;0.30;0.30;;;;;;;;;;1743611;28;20266;-61
2021/12/25 05:25:51;;;;;;;0.10;0.10;;;;;;;;;;1744013;28;20223;-61
2021/12/25 05:26:42;;;;;;;0.20;0.20;;;;;;;;;;1744075;28;20324;-61
2021/12/25 05:27:34;;;;;;;0.08;0.08;;;;;;;;;;1745110;28;20198;-60
2021/12/25 05:28:35;;;;;;;0.10;0.10;;;;;;;;;;1741677;28;20746;-62
2021/12/25 05:29:30;;;;;;;0.10;0.10;;;;;;;;;;1743166;28;20194;-61
2021/12/25 05:30:22;;;;;;;0.20;0.20;;;;;;;;;;1742124;28;20232;-62
2021/12/25 05:31:15;;;;;;;0.20;0.20;;;;;;;;;;1744336;28;20222;-60
2021/12/25 05:32:06;;;;;;;0.30;0.30;;;;;;;;;;1743404;28;20198;-60
2021/12/25 05:32:58;;;;;;;0.20;0.20;;;;;;;;;;1745412;28;20580;-60
2021/12/25 05:33:49;;;;;;;0.10;0.10;;;;;;;;;;1740407;28;20214;-61
2021/12/25 05:34:42;;;;;;;0.30;0.30;;;;;;;;;;1744131;28;20206;-63
2021/12/25 05:35:33;;;;;;;0.20;0.20;;;;;;;;;;1741090;28;20198;-60
2021/12/25 05:36:27;;;;;;;0.20;0.20;;;;;;;;;;1745066;28;20205;-60
2021/12/25 05:37:18;;;;;;;0.20;0.20;;;;;;;;;;1741595;28;20281;-61
2021/12/25 05:38:14;;;;;;;0.10;0.10;;;;;;;;;;1743135;28;20225;-60
2021/12/25 05:39:09;;;;;;;0.10;0.10;;;;;;;;;;1744401;28;20281;-62
2021/12/25 05:40:01;;;;;;;0.22;0.22;;;;;;;;;;1743436;28;20246;-61
2021/12/25 05:40:53;;;;;;;0.30;0.30;;;;;;;;;;1743331;28;20234;-60
2021/12/25 05:41:45;;;;;;;0.10;0.10;;;;;;;;;;1743263;28;20202;-61
2021/12/25 05:42:36;;;;;;;0.20;0.20;;;;;;;;;;1744244;28;20680;-60
2021/12/25 05:43:30;;;;;;;0.10;0.10;;;;;;;;;;1744808;28;20616;-59
2021/12/25 05:44:21;;;;;;;0.30;0.30;;;;;;;;;;1740720;28;20202;-62
2021/12/25 05:45:13;;;;;;;0.10;0.10;;;;;;;;;;1746946;22;20263;-61
2021/12/25 05:46:04;;;;;;;0.17;0.17;;;;;;;;;;1715465;28;20638;-59
2021/12/25 05:46:57;;;;;;;0.10;0.10;;;;;;;;;;1716695;28;20255;-60
2021/12/25 05:47:48;;;;;;;0.10;0.10;;;;;;;;;;1718184;28;20215;-61
2021/12/25 05:48:40;;;;;;;0.20;0.20;;;;;;;;;;1717056;28;20201;-59
2021/12/25 05:49:31;;;;;;;0.10;0.10;;;;;;;;;;1718162;28;20662;-59
2021/12/25 05:50:24;;;;;;;0.20;0.20;;;;;;;;;;1716370;28;20205;-60
2021/12/25 05:51:15;;;;;;;0.20;0.20;;;;;;;;;;1718029;28;20736;-61
2021/12/25 05:52:07;;;;;;;0.10;0.10;;;;;;;;;;1718027;28;20205;-61
2021/12/25 05:52:59;;;;;;;0.17;0.17;;;;;;;;;;1717101;28;20214;-61
2021/12/25 05:53:51;;;;;;;0.20;0.20;;;;;;;;;;1717548;28;20212;-60
2021/12/25 05:54:42;;;;;;;0.15;0.15;;;;;;;;;;1717844;28;20216;-60
2021/12/25 05:55:34;;;;;;;0.30;0.30;;;;;;;;;;1716811;28;20232;-60
2021/12/25 05:56:25;;;;;;;0.20;0.20;;;;;;;;;;1717921;28;20204;-61
2021/12/25 05:57:18;;;;;;;0.30;0.30;;;;;;;;;;1718776;28;20204;-60
2021/12/25 05:58:09;;;;;;;0.00;0.00;;;;;;;;;;1717881;28;20201;-59
2021/12/25 05:59:02;;;;;;;0.00;0.00;;;;;;;;;;1716307;28;20680;-59
2021/12/25 05:59:54;;;;;;;0.10;0.10;;;;;;;;;;1717758;28;20219;-61
2021/12/25 06:00:46;;;;;;;0.28;0.28;;;;;;;;;;1716130;28;20252;-60
2021/12/25 06:01:37;;;;;;;0.10;0.10;;;;;;;;;;1717368;28;20209;-59
2021/12/25 06:02:29;;;;;;;0.30;0.30;;;;;;;;;;1717718;28;20605;-62
2021/12/25 06:03:20;;;;;;;0.10;0.10;;;;;;;;;;1717592;28;20201;-61
2021/12/25 06:04:13;;;;;;;0.40;0.40;;;;;;;;;;1719273;28;20216;-61
2021/12/25 06:05:04;;;;;;;0.22;0.22;;;;;;;;;;1716661;28;20231;-62
2021/12/25 06:05:57;;;;;;;0.10;0.10;;;;;;;;;;1718906;28;20255;-59
2021/12/25 06:06:48;;;;;;;0.17;0.17;;;;;;;;;;1720023;28;20208;-61
2021/12/25 06:07:40;;;;;;;0.20;0.20;;;;;;;;;;1721484;28;20208;-59
2021/12/25 06:08:31;;;;;;;0.20;0.20;;;;;;;;;;1719256;28;20216;-61
2021/12/25 06:09:24;;;;;;;0.10;0.10;;;;;;;;;;1721638;28;20200;-61
2021/12/25 06:10:15;;;;;;;0.30;0.30;;;;;;;;;;1719714;28;20205;-60
2021/12/25 06:11:07;;;;;;;0.32;0.32;;;;;;;;;;1720822;28;20227;-62
2021/12/25 06:11:58;;;;;;;0.30;0.30;;;;;;;;;;1718210;28;20661;-61
2021/12/25 06:12:54;;;;;;;0.30;0.30;;;;;;;;;;1723203;28;20705;-59
2021/12/25 06:13:56;;;;;;;0.15;0.15;;;;;;;;;;1718488;28;20752;-60
2021/12/25 06:14:49;;;;;;;0.20;0.20;;;;;;;;;;1712872;28;20313;-61
2021/12/25 06:15:42;;;;;;;0.20;0.20;;;;;;;;;;1717015;28;20698;-60